sensor_id;sensor_type;location;lat;lon;timestamp;P1;P2;P0
33948;PMS7003;20229;49.856;19.030;2022-10-16T00:02:43;17;15;12
33948;PMS7003;20229;49.856;19.030;2022-10-16T00:07:46;17;16;11
33948;PMS7003;20229;49.856;19.030;2022-10-16T00:13:08;19;16;11
33948;PMS7003;20229;49.856;19.030;2022-10-16T00:18:11;19;17;12
33948;PMS7003;20229;49.856;19.030;2022-10-16T00:23:33;17;16;12
33948;PMS7003;20229;49.856;19.030;2022-10-16T00:28:38;19;18;13
33948;PMS7003;20229;49.856;19.030;2022-10-16T00:33:59;18;17;12
33948;PMS7003;20229;49.856;19.030;2022-10-16T00:39:03;19;14;10
33948;PMS7003;20229;49.856;19.030;2022-10-16T00:49:40;19;16;11
33948;PMS7003;20229;49.856;19.030;2022-10-16T00:54:50;15;13;8
33948;PMS7003;20229;49.856;19.030;2022-10-16T00:59:55;16;14;9
33948;PMS7003;20229;49.856;19.030;2022-10-16T01:05:15;17;16;10
33948;PMS7003;20229;49.856;19.030;2022-10-16T01:10:25;15;14;8
33948;PMS7003;20229;49.856;19.030;2022-10-16T01:15:47;17;15;10
33948;PMS7003;20229;49.856;19.030;2022-10-16T01:21:01;16;13;9
33948;PMS7003;20229;49.856;19.030;2022-10-16T01:31:27;15;12;8
33948;PMS7003;20229;49.856;19.030;2022-10-16T01:36:39;12;11;8
33948;PMS7003;20229;49.856;19.030;2022-10-16T01:41:55;14;13;8
33948;PMS7003;20229;49.856;19.030;2022-10-16T01:47:05;15;13;8
33948;PMS7003;20229;49.856;19.030;2022-10-16T01:52:14;20;17;12
33948;PMS7003;20229;49.856;19.030;2022-10-16T01:57:22;19;14;10
33948;PMS7003;20229;49.856;19.030;2022-10-16T02:02:29;16;14;9
33948;PMS7003;20229;49.856;19.030;2022-10-16T02:07:47;17;14;10
33948;PMS7003;20229;49.856;19.030;2022-10-16T02:18:12;17;14;9
33948;PMS7003;20229;49.856;19.030;2022-10-16T02:23:19;15;13;9
33948;PMS7003;20229;49.856;19.030;2022-10-16T02:28:46;11;10;5
33948;PMS7003;20229;49.856;19.030;2022-10-16T02:33:51;16;13;8
33948;PMS7003;20229;49.856;19.030;2022-10-16T02:39:03;16;12;8
33948;PMS7003;20229;49.856;19.030;2022-10-16T02:44:08;14;13;8
33948;PMS7003;20229;49.856;19.030;2022-10-16T02:49:28;14;13;8
33948;PMS7003;20229;49.856;19.030;2022-10-16T02:54:31;15;11;7
33948;PMS7003;20229;49.856;19.030;2022-10-16T02:59:53;15;12;8
33948;PMS7003;20229;49.856;19.030;2022-10-16T03:04:57;18;15;9
33948;PMS7003;20229;49.856;19.030;2022-10-16T03:10:18;16;14;10
33948;PMS7003;20229;49.856;19.030;2022-10-16T03:15:22;16;15;10
33948;PMS7003;20229;49.856;19.030;2022-10-16T03:20:44;20;16;10
33948;PMS7003;20229;49.856;19.030;2022-10-16T03:25:47;22;16;11
33948;PMS7003;20229;49.856;19.030;2022-10-16T03:31:09;17;16;11
33948;PMS7003;20229;49.856;19.030;2022-10-16T03:36:12;25;22;15
33948;PMS7003;20229;49.856;19.030;2022-10-16T03:41:35;23;21;15
33948;PMS7003;20229;49.856;19.030;2022-10-16T03:46:38;20;19;14
33948;PMS7003;20229;49.856;19.030;2022-10-16T03:52:00;23;21;15
33948;PMS7003;20229;49.856;19.030;2022-10-16T03:57:03;24;21;15
33948;PMS7003;20229;49.856;19.030;2022-10-16T04:02:26;22;19;13
33948;PMS7003;20229;49.856;19.030;2022-10-16T04:07:29;16;14;8
33948;PMS7003;20229;49.856;19.030;2022-10-16T04:12:51;7;7;2
33948;PMS7003;20229;49.856;19.030;2022-10-16T04:17:58;10;9;3
33948;PMS7003;20229;49.856;19.030;2022-10-16T04:23:17;11;10;4
33948;PMS7003;20229;49.856;19.030;2022-10-16T04:28:20;13;10;4
33948;PMS7003;20229;49.856;19.030;2022-10-16T04:33:43;10;9;3
33948;PMS7003;20229;49.856;19.030;2022-10-16T04:38:46;14;12;6
33948;PMS7003;20229;49.856;19.030;2022-10-16T04:44:08;44;38;32
33948;PMS7003;20229;49.856;19.030;2022-10-16T04:49:11;34;30;24
33948;PMS7003;20229;49.856;19.030;2022-10-16T04:54:36;55;51;45
33948;PMS7003;20229;49.856;19.030;2022-10-16T04:59:40;76;75;72
33948;PMS7003;20229;49.856;19.030;2022-10-16T05:05:04;71;67;64
33948;PMS7003;20229;49.856;19.030;2022-10-16T05:10:08;55;51;46
33948;PMS7003;20229;49.856;19.030;2022-10-16T05:15:30;31;28;23
33948;PMS7003;20229;49.856;19.030;2022-10-16T05:20:34;42;39;34
33948;PMS7003;20229;49.856;19.030;2022-10-16T05:25:56;10;7;3
33948;PMS7003;20229;49.856;19.030;2022-10-16T05:31:05;15;14;9
33948;PMS7003;20229;49.856;19.030;2022-10-16T05:36:21;16;14;10
33948;PMS7003;20229;49.856;19.030;2022-10-16T05:41:24;19;18;14
33948;PMS7003;20229;49.856;19.030;2022-10-16T05:46:46;18;15;11
33948;PMS7003;20229;49.856;19.030;2022-10-16T05:51:50;20;15;11
33948;PMS7003;20229;49.856;19.030;2022-10-16T05:57:12;19;13;9
33948;PMS7003;20229;49.856;19.030;2022-10-16T06:02:15;14;13;9
33948;PMS7003;20229;49.856;19.030;2022-10-16T06:07:37;13;12;8
33948;PMS7003;20229;49.856;19.030;2022-10-16T06:12:40;14;12;8
33948;PMS7003;20229;49.856;19.030;2022-10-16T06:18:02;19;16;10
33948;PMS7003;20229;49.856;19.030;2022-10-16T06:23:06;16;13;8
33948;PMS7003;20229;49.856;19.030;2022-10-16T06:28:28;17;13;9
33948;PMS7003;20229;49.856;19.030;2022-10-16T06:33:31;17;16;11
33948;PMS7003;20229;49.856;19.030;2022-10-16T06:38:53;15;13;8
33948;PMS7003;20229;49.856;19.030;2022-10-16T06:43:57;16;15;11
33948;PMS7003;20229;49.856;19.030;2022-10-16T06:49:19;13;11;6
33948;PMS7003;20229;49.856;19.030;2022-10-16T06:54:25;14;12;7
33948;PMS7003;20229;49.856;19.030;2022-10-16T06:59:44;12;10;7
33948;PMS7003;20229;49.856;19.030;2022-10-16T07:06:03;13;11;7
33948;PMS7003;20229;49.856;19.030;2022-10-16T07:11:25;44;37;30
33948;PMS7003;20229;49.856;19.030;2022-10-16T07:16:29;37;28;22
33948;PMS7003;20229;49.856;19.030;2022-10-16T07:21:52;34;29;23
33948;PMS7003;20229;49.856;19.030;2022-10-16T07:26:56;50;42;35
33948;PMS7003;20229;49.856;19.030;2022-10-16T07:32:17;32;28;21
33948;PMS7003;20229;49.856;19.030;2022-10-16T07:37:20;24;23;18
33948;PMS7003;20229;49.856;19.030;2022-10-16T07:42:42;56;46;38
33948;PMS7003;20229;49.856;19.030;2022-10-16T07:47:46;39;34;27
33948;PMS7003;20229;49.856;19.030;2022-10-16T07:53:08;59;49;43
33948;PMS7003;20229;49.856;19.030;2022-10-16T07:58:12;63;52;48
33948;PMS7003;20229;49.856;19.030;2022-10-16T08:03:33;54;45;38
33948;PMS7003;20229;49.856;19.030;2022-10-16T08:08:37;50;41;32
33948;PMS7003;20229;49.856;19.030;2022-10-16T08:13:59;28;25;20
33948;PMS7003;20229;49.856;19.030;2022-10-16T08:19:02;26;24;18
33948;PMS7003;20229;49.856;19.030;2022-10-16T08:24:24;24;22;17
33948;PMS7003;20229;49.856;19.030;2022-10-16T08:29:29;26;24;18
33948;PMS7003;20229;49.856;19.030;2022-10-16T08:34:50;19;19;12
33948;PMS7003;20229;49.856;19.030;2022-10-16T08:39:53;25;23;18
33948;PMS7003;20229;49.856;19.030;2022-10-16T08:45:19;22;21;16
33948;PMS7003;20229;49.856;19.030;2022-10-16T08:50:30;23;22;17
33948;PMS7003;20229;49.856;19.030;2022-10-16T08:55:45;13;13;9
33948;PMS7003;20229;49.856;19.030;2022-10-16T09:00:54;13;12;9
33948;PMS7003;20229;49.856;19.030;2022-10-16T09:11:25;13;12;8
33948;PMS7003;20229;49.856;19.030;2022-10-16T09:16:39;38;32;25
33948;PMS7003;20229;49.856;19.030;2022-10-16T09:21:48;30;27;22
33948;PMS7003;20229;49.856;19.030;2022-10-16T09:26:56;25;22;18
33948;PMS7003;20229;49.856;19.030;2022-10-16T09:32:06;11;10;7
33948;PMS7003;20229;49.856;19.030;2022-10-16T09:37:22;18;16;12
33948;PMS7003;20229;49.856;19.030;2022-10-16T09:42:31;15;14;9
33948;PMS7003;20229;49.856;19.030;2022-10-16T09:47:47;10;10;6
33948;PMS7003;20229;49.856;19.030;2022-10-16T09:52:51;12;11;8
33948;PMS7003;20229;49.856;19.030;2022-10-16T09:58:13;13;12;9
33948;PMS7003;20229;49.856;19.030;2022-10-16T10:03:36;12;11;9
33948;PMS7003;20229;49.856;19.030;2022-10-16T10:08:37;17;14;9
33948;PMS7003;20229;49.856;19.030;2022-10-16T10:13:41;12;11;7
33948;PMS7003;20229;49.856;19.030;2022-10-16T10:19:03;13;13;8
33948;PMS7003;20229;49.856;19.030;2022-10-16T10:24:09;16;12;8
33948;PMS7003;20229;49.856;19.030;2022-10-16T10:50:41;22;18;13
33948;PMS7003;20229;49.856;19.030;2022-10-16T11:01:01;20;19;14
33948;PMS7003;20229;49.856;19.030;2022-10-16T11:06:18;18;17;12
33948;PMS7003;20229;49.856;19.030;2022-10-16T11:16:47;12;11;7
33948;PMS7003;20229;49.856;19.030;2022-10-16T11:27:14;27;24;17
33948;PMS7003;20229;49.856;19.030;2022-10-16T11:32:25;30;26;21
33948;PMS7003;20229;49.856;19.030;2022-10-16T11:37:38;21;20;15
33948;PMS7003;20229;49.856;19.030;2022-10-16T11:42:53;13;12;10
33948;PMS7003;20229;49.856;19.030;2022-10-16T11:54:04;16;16;13
33948;PMS7003;20229;49.856;19.030;2022-10-16T12:19:39;31;28;22
33948;PMS7003;20229;49.856;19.030;2022-10-16T12:24:42;42;36;29
33948;PMS7003;20229;49.856;19.030;2022-10-16T12:29:46;22;20;16
33948;PMS7003;20229;49.856;19.030;2022-10-16T12:34:50;18;16;12
33948;PMS7003;20229;49.856;19.030;2022-10-16T12:39:54;17;16;11
33948;PMS7003;20229;49.856;19.030;2022-10-16T12:45:00;17;12;8
33948;PMS7003;20229;49.856;19.030;2022-10-16T12:50:22;30;25;20
33948;PMS7003;20229;49.856;19.030;2022-10-16T12:55:24;16;15;10
33948;PMS7003;20229;49.856;19.030;2022-10-16T13:11:14;19;18;13
33948;PMS7003;20229;49.856;19.030;2022-10-16T13:32:12;52;44;40
33948;PMS7003;20229;49.856;19.030;2022-10-16T13:37:20;55;49;45
33948;PMS7003;20229;49.856;19.030;2022-10-16T13:42:26;57;50;45
33948;PMS7003;20229;49.856;19.030;2022-10-16T13:47:32;37;31;24
33948;PMS7003;20229;49.856;19.030;2022-10-16T13:52:36;36;31;24
33948;PMS7003;20229;49.856;19.030;2022-10-16T14:03:13;41;35;28
33948;PMS7003;20229;49.856;19.030;2022-10-16T14:08:23;45;37;29
33948;PMS7003;20229;49.856;19.030;2022-10-16T14:18:52;36;31;24
33948;PMS7003;20229;49.856;19.030;2022-10-16T14:29:15;54;41;38
33948;PMS7003;20229;49.856;19.030;2022-10-16T14:34:32;55;47;43
33948;PMS7003;20229;49.856;19.030;2022-10-16T14:39:40;43;37;28
33948;PMS7003;20229;49.856;19.030;2022-10-16T14:44:43;40;32;25
33948;PMS7003;20229;49.856;19.030;2022-10-16T14:50:07;38;32;25
33948;PMS7003;20229;49.856;19.030;2022-10-16T14:55:11;40;33;26
33948;PMS7003;20229;49.856;19.030;2022-10-16T15:00:31;30;28;22
33948;PMS7003;20229;49.856;19.030;2022-10-16T15:05:34;35;33;24
33948;PMS7003;20229;49.856;19.030;2022-10-16T15:10:56;43;34;26
33948;PMS7003;20229;49.856;19.030;2022-10-16T15:16:00;38;32;25
33948;PMS7003;20229;49.856;19.030;2022-10-16T15:26:32;45;35;28
33948;PMS7003;20229;49.856;19.030;2022-10-16T15:31:47;41;32;24
33948;PMS7003;20229;49.856;19.030;2022-10-16T15:36:51;36;33;24
33948;PMS7003;20229;49.856;19.030;2022-10-16T15:42:13;38;32;24
33948;PMS7003;20229;49.856;19.030;2022-10-16T15:47:16;32;29;22
33948;PMS7003;20229;49.856;19.030;2022-10-16T15:52:39;29;28;21
33948;PMS7003;20229;49.856;19.030;2022-10-16T15:57:43;31;28;20
33948;PMS7003;20229;49.856;19.030;2022-10-16T16:03:05;31;28;20
33948;PMS7003;20229;49.856;19.030;2022-10-16T16:08:08;32;29;22
33948;PMS7003;20229;49.856;19.030;2022-10-16T16:13:30;36;32;24
33948;PMS7003;20229;49.856;19.030;2022-10-16T16:18:34;34;28;22
33948;PMS7003;20229;49.856;19.030;2022-10-16T16:23:55;47;39;31
33948;PMS7003;20229;49.856;19.030;2022-10-16T16:28:58;38;33;26
33948;PMS7003;20229;49.856;19.030;2022-10-16T16:34:21;47;38;29
33948;PMS7003;20229;49.856;19.030;2022-10-16T16:39:24;40;34;27
33948;PMS7003;20229;49.856;19.030;2022-10-16T16:44:47;36;30;23
33948;PMS7003;20229;49.856;19.030;2022-10-16T16:49:52;28;25;18
33948;PMS7003;20229;49.856;19.030;2022-10-16T16:55:12;24;23;16
33948;PMS7003;20229;49.856;19.030;2022-10-16T17:00:15;23;20;16
33948;PMS7003;20229;49.856;19.030;2022-10-16T17:05:37;24;22;17
33948;PMS7003;20229;49.856;19.030;2022-10-16T17:10:43;20;20;13
33948;PMS7003;20229;49.856;19.030;2022-10-16T17:16:03;20;18;12
33948;PMS7003;20229;49.856;19.030;2022-10-16T17:21:09;20;17;12
33948;PMS7003;20229;49.856;19.030;2022-10-16T17:26:28;22;19;12
33948;PMS7003;20229;49.856;19.030;2022-10-16T17:31:33;18;16;11
33948;PMS7003;20229;49.856;19.030;2022-10-16T17:36:54;21;18;12
33948;PMS7003;20229;49.856;19.030;2022-10-16T17:41:57;24;20;11
33948;PMS7003;20229;49.856;19.030;2022-10-16T17:47:19;27;22;15
33948;PMS7003;20229;49.856;19.030;2022-10-16T17:52:22;28;24;14
33948;PMS7003;20229;49.856;19.030;2022-10-16T17:57:45;36;27;16
33948;PMS7003;20229;49.856;19.030;2022-10-16T18:02:48;33;28;19
33948;PMS7003;20229;49.856;19.030;2022-10-16T18:08:10;35;29;18
33948;PMS7003;20229;49.856;19.030;2022-10-16T18:13:14;44;36;26
33948;PMS7003;20229;49.856;19.030;2022-10-16T18:18:36;22;20;15
33948;PMS7003;20229;49.856;19.030;2022-10-16T18:23:40;35;28;20
33948;PMS7003;20229;49.856;19.030;2022-10-16T18:29:01;48;40;30
33948;PMS7003;20229;49.856;19.030;2022-10-16T18:34:10;52;42;35
33948;PMS7003;20229;49.856;19.030;2022-10-16T18:39:27;45;37;28
33948;PMS7003;20229;49.856;19.030;2022-10-16T18:44:30;42;34;24
33948;PMS7003;20229;49.856;19.030;2022-10-16T18:49:53;41;35;27
33948;PMS7003;20229;49.856;19.030;2022-10-16T18:54:59;42;33;26
33948;PMS7003;20229;49.856;19.030;2022-10-16T19:00:19;40;34;25
33948;PMS7003;20229;49.856;19.030;2022-10-16T19:05:24;39;33;25
33948;PMS7003;20229;49.856;19.030;2022-10-16T19:10:45;40;33;26
33948;PMS7003;20229;49.856;19.030;2022-10-16T19:15:49;37;31;24
33948;PMS7003;20229;49.856;19.030;2022-10-16T19:21:11;37;31;24
33948;PMS7003;20229;49.856;19.030;2022-10-16T19:26:20;49;40;34
33948;PMS7003;20229;49.856;19.030;2022-10-16T19:31:36;40;32;24
33948;PMS7003;20229;49.856;19.030;2022-10-16T19:36:42;37;31;24
33948;PMS7003;20229;49.856;19.030;2022-10-16T19:42:02;38;31;23
33948;PMS7003;20229;49.856;19.030;2022-10-16T19:47:05;31;27;20
33948;PMS7003;20229;49.856;19.030;2022-10-16T19:52:27;32;26;19
33948;PMS7003;20229;49.856;19.030;2022-10-16T19:57:34;33;30;22
33948;PMS7003;20229;49.856;19.030;2022-10-16T20:02:53;30;26;20
33948;PMS7003;20229;49.856;19.030;2022-10-16T20:07:57;32;28;21
33948;PMS7003;20229;49.856;19.030;2022-10-16T20:13:19;44;36;28
33948;PMS7003;20229;49.856;19.030;2022-10-16T20:18:23;33;29;21
33948;PMS7003;20229;49.856;19.030;2022-10-16T20:23:44;17;15;8
33948;PMS7003;20229;49.856;19.030;2022-10-16T20:28:52;16;14;7
33948;PMS7003;20229;49.856;19.030;2022-10-16T20:34:11;50;43;35
33948;PMS7003;20229;49.856;19.030;2022-10-16T20:39:15;47;39;32
33948;PMS7003;20229;49.856;19.030;2022-10-16T20:44:36;53;43;35
33948;PMS7003;20229;49.856;19.030;2022-10-16T20:49:39;60;53;47
33948;PMS7003;20229;49.856;19.030;2022-10-16T20:55:02;65;61;57
33948;PMS7003;20229;49.856;19.030;2022-10-16T21:00:07;75;72;69
33948;PMS7003;20229;49.856;19.030;2022-10-16T21:05:29;56;49;42
33948;PMS7003;20229;49.856;19.030;2022-10-16T21:10:36;48;39;33
33948;PMS7003;20229;49.856;19.030;2022-10-16T21:15:55;49;41;35
33948;PMS7003;20229;49.856;19.030;2022-10-16T21:20:58;48;40;34
33948;PMS7003;20229;49.856;19.030;2022-10-16T21:26:22;51;44;38
33948;PMS7003;20229;49.856;19.030;2022-10-16T21:31:29;79;72;68
33948;PMS7003;20229;49.856;19.030;2022-10-16T21:36:47;114;111;109
33948;PMS7003;20229;49.856;19.030;2022-10-16T21:41:51;109;105;103
33948;PMS7003;20229;49.856;19.030;2022-10-16T21:47:14;57;52;47
33948;PMS7003;20229;49.856;19.030;2022-10-16T21:52:17;61;53;48
33948;PMS7003;20229;49.856;19.030;2022-10-16T21:57:39;63;57;52
33948;PMS7003;20229;49.856;19.030;2022-10-16T22:02:42;60;54;50
33948;PMS7003;20229;49.856;19.030;2022-10-16T22:08:05;52;45;39
33948;PMS7003;20229;49.856;19.030;2022-10-16T22:13:09;53;46;39
33948;PMS7003;20229;49.856;19.030;2022-10-16T22:18:30;39;31;26
33948;PMS7003;20229;49.856;19.030;2022-10-16T22:23:34;37;33;26
33948;PMS7003;20229;49.856;19.030;2022-10-16T22:28:56;23;19;13
33948;PMS7003;20229;49.856;19.030;2022-10-16T22:34:00;23;19;12
33948;PMS7003;20229;49.856;19.030;2022-10-16T22:39:21;27;19;13
33948;PMS7003;20229;49.856;19.030;2022-10-16T22:44:25;35;30;23
33948;PMS7003;20229;49.856;19.030;2022-10-16T22:49:47;39;34;26
33948;PMS7003;20229;49.856;19.030;2022-10-16T22:54:50;27;22;15
33948;PMS7003;20229;49.856;19.030;2022-10-16T23:00:14;27;22;16
33948;PMS7003;20229;49.856;19.030;2022-10-16T23:05:19;25;20;14
33948;PMS7003;20229;49.856;19.030;2022-10-16T23:10:42;32;26;19
33948;PMS7003;20229;49.856;19.030;2022-10-16T23:15:47;46;39;33
33948;PMS7003;20229;49.856;19.030;2022-10-16T23:21:04;54;48;41
33948;PMS7003;20229;49.856;19.030;2022-10-16T23:26:14;58;50;43
33948;PMS7003;20229;49.856;19.030;2022-10-16T23:31:29;74;70;66
33948;PMS7003;20229;49.856;19.030;2022-10-16T23:36:32;80;75;72
33948;PMS7003;20229;49.856;19.030;2022-10-16T23:41:56;102;100;96
33948;PMS7003;20229;49.856;19.030;2022-10-16T23:46:59;113;111;108
33948;PMS7003;20229;49.856;19.030;2022-10-16T23:52:22;116;113;109
33948;PMS7003;20229;49.856;19.030;2022-10-16T23:57:26;114;112;109
